sensor_id;sensor_type;location;lat;lon;timestamp;P1;durP1;ratioP1;P2;durP2;ratioP2
1682;SDS011;13252;53.596;10.060;2023-05-23T00:02:15;15.50;;;14.00;;
1682;SDS011;13252;53.596;10.060;2023-05-23T00:04:42;14.63;;;13.40;;
1682;SDS011;13252;53.596;10.060;2023-05-23T00:07:10;14.57;;;12.50;;
1682;SDS011;13252;53.596;10.060;2023-05-23T00:09:38;15.67;;;14.13;;
1682;SDS011;13252;53.596;10.060;2023-05-23T00:12:06;14.17;;;12.70;;
1682;SDS011;13252;53.596;10.060;2023-05-23T00:14:36;14.27;;;12.60;;
1682;SDS011;13252;53.596;10.060;2023-05-23T00:17:05;15.47;;;12.90;;
1682;SDS011;13252;53.596;10.060;2023-05-23T00:19:36;16.83;;;13.80;;
1682;SDS011;13252;53.596;10.060;2023-05-23T00:22:04;19.47;;;13.60;;
1682;SDS011;13252;53.596;10.060;2023-05-23T00:24:31;15.80;;;14.03;;
1682;SDS011;13252;53.596;10.060;2023-05-23T00:26:59;15.13;;;13.70;;
1682;SDS011;13252;53.596;10.060;2023-05-23T00:29:27;15.07;;;12.33;;
1682;SDS011;13252;53.596;10.060;2023-05-23T00:31:56;17.20;;;14.83;;
1682;SDS011;13252;53.596;10.060;2023-05-23T00:34:24;16.20;;;14.57;;
1682;SDS011;13252;53.596;10.060;2023-05-23T00:36:52;16.70;;;15.00;;
1682;SDS011;13252;53.596;10.060;2023-05-23T00:39:20;18.33;;;16.73;;
1682;SDS011;13252;53.596;10.060;2023-05-23T00:41:48;17.37;;;15.57;;
1682;SDS011;13252;53.596;10.060;2023-05-23T00:44:18;17.40;;;15.73;;
1682;SDS011;13252;53.596;10.060;2023-05-23T00:46:48;19.00;;;17.30;;
1682;SDS011;13252;53.596;10.060;2023-05-23T00:49:20;17.03;;;15.53;;
1682;SDS011;13252;53.596;10.060;2023-05-23T00:51:48;17.73;;;16.10;;
1682;SDS011;13252;53.596;10.060;2023-05-23T00:54:17;17.80;;;16.00;;
1682;SDS011;13252;53.596;10.060;2023-05-23T00:56:47;19.00;;;16.90;;
1682;SDS011;13252;53.596;10.060;2023-05-23T00:59:15;22.00;;;19.70;;
1682;SDS011;13252;53.596;10.060;2023-05-23T01:01:46;23.10;;;19.27;;
1682;SDS011;13252;53.596;10.060;2023-05-23T01:04:16;22.43;;;20.43;;
1682;SDS011;13252;53.596;10.060;2023-05-23T01:06:46;23.43;;;21.30;;
1682;SDS011;13252;53.596;10.060;2023-05-23T01:09:14;24.50;;;22.47;;
1682;SDS011;13252;53.596;10.060;2023-05-23T01:11:44;23.47;;;21.30;;
1682;SDS011;13252;53.596;10.060;2023-05-23T01:14:17;23.43;;;21.03;;
1682;SDS011;13252;53.596;10.060;2023-05-23T01:16:52;26.43;;;21.67;;
1682;SDS011;13252;53.596;10.060;2023-05-23T01:19:35;25.90;;;21.67;;
1682;SDS011;13252;53.596;10.060;2023-05-23T01:22:19;23.90;;;21.80;;
1682;SDS011;13252;53.596;10.060;2023-05-23T01:24:53;23.67;;;21.67;;
1682;SDS011;13252;53.596;10.060;2023-05-23T01:27:24;23.00;;;20.80;;
1682;SDS011;13252;53.596;10.060;2023-05-23T01:30:06;25.60;;;21.10;;
1682;SDS011;13252;53.596;10.060;2023-05-23T01:32:36;24.40;;;19.77;;
1682;SDS011;13252;53.596;10.060;2023-05-23T01:35:04;22.63;;;20.23;;
1682;SDS011;13252;53.596;10.060;2023-05-23T01:37:35;21.90;;;19.80;;
1682;SDS011;13252;53.596;10.060;2023-05-23T01:40:04;22.17;;;19.90;;
1682;SDS011;13252;53.596;10.060;2023-05-23T01:42:32;23.80;;;21.40;;
1682;SDS011;13252;53.596;10.060;2023-05-23T01:45:03;23.30;;;21.10;;
1682;SDS011;13252;53.596;10.060;2023-05-23T01:47:32;25.93;;;21.23;;
1682;SDS011;13252;53.596;10.060;2023-05-23T01:50:02;25.10;;;22.27;;
1682;SDS011;13252;53.596;10.060;2023-05-23T01:52:32;24.73;;;22.40;;
1682;SDS011;13252;53.596;10.060;2023-05-23T01:55:01;25.13;;;22.93;;
1682;SDS011;13252;53.596;10.060;2023-05-23T01:57:30;24.13;;;21.93;;
1682;SDS011;13252;53.596;10.060;2023-05-23T01:59:58;24.73;;;21.90;;
1682;SDS011;13252;53.596;10.060;2023-05-23T02:02:28;24.73;;;21.53;;
1682;SDS011;13252;53.596;10.060;2023-05-23T02:04:58;24.83;;;22.43;;
1682;SDS011;13252;53.596;10.060;2023-05-23T02:07:26;32.23;;;21.23;;
1682;SDS011;13252;53.596;10.060;2023-05-23T02:09:56;27.00;;;24.57;;
1682;SDS011;13252;53.596;10.060;2023-05-23T02:12:24;28.73;;;26.07;;
1682;SDS011;13252;53.596;10.060;2023-05-23T02:14:52;34.17;;;31.20;;
1682;SDS011;13252;53.596;10.060;2023-05-23T02:17:21;40.20;;;36.17;;
1682;SDS011;13252;53.596;10.060;2023-05-23T02:19:52;44.20;;;40.20;;
1682;SDS011;13252;53.596;10.060;2023-05-23T02:22:21;45.70;;;41.50;;
1682;SDS011;13252;53.596;10.060;2023-05-23T02:24:50;43.93;;;40.03;;
1682;SDS011;13252;53.596;10.060;2023-05-23T02:27:20;43.83;;;40.13;;
1682;SDS011;13252;53.596;10.060;2023-05-23T02:29:48;43.87;;;40.17;;
1682;SDS011;13252;53.596;10.060;2023-05-23T02:32:16;47.03;;;42.93;;
1682;SDS011;13252;53.596;10.060;2023-05-23T02:34:44;49.13;;;44.97;;
1682;SDS011;13252;53.596;10.060;2023-05-23T02:37:17;51.23;;;46.57;;
1682;SDS011;13252;53.596;10.060;2023-05-23T02:39:46;54.03;;;49.20;;
1682;SDS011;13252;53.596;10.060;2023-05-23T02:42:15;56.17;;;50.53;;
1682;SDS011;13252;53.596;10.060;2023-05-23T02:44:44;56.20;;;50.63;;
1682;SDS011;13252;53.596;10.060;2023-05-23T02:47:12;54.20;;;49.27;;
1682;SDS011;13252;53.596;10.060;2023-05-23T02:49:42;58.60;;;52.87;;
1682;SDS011;13252;53.596;10.060;2023-05-23T02:52:11;58.27;;;52.50;;
1682;SDS011;13252;53.596;10.060;2023-05-23T02:54:40;62.67;;;56.00;;
1682;SDS011;13252;53.596;10.060;2023-05-23T02:57:09;70.90;;;55.23;;
1682;SDS011;13252;53.596;10.060;2023-05-23T02:59:39;67.30;;;53.40;;
1682;SDS011;13252;53.596;10.060;2023-05-23T03:02:08;65.50;;;54.63;;
1682;SDS011;13252;53.596;10.060;2023-05-23T03:04:37;65.10;;;55.27;;
1682;SDS011;13252;53.596;10.060;2023-05-23T03:07:05;70.97;;;57.10;;
1682;SDS011;13252;53.596;10.060;2023-05-23T03:09:47;75.00;;;57.10;;
1682;SDS011;13252;53.596;10.060;2023-05-23T03:12:16;77.23;;;55.03;;
1682;SDS011;13252;53.596;10.060;2023-05-23T03:14:44;79.97;;;55.93;;
1682;SDS011;13252;53.596;10.060;2023-05-23T03:17:13;75.00;;;54.60;;
1682;SDS011;13252;53.596;10.060;2023-05-23T03:19:42;69.10;;;54.30;;
1682;SDS011;13252;53.596;10.060;2023-05-23T03:22:10;70.63;;;55.47;;
1682;SDS011;13252;53.596;10.060;2023-05-23T03:24:40;75.57;;;55.77;;
1682;SDS011;13252;53.596;10.060;2023-05-23T03:27:11;68.93;;;53.33;;
1682;SDS011;13252;53.596;10.060;2023-05-23T03:29:39;74.83;;;53.83;;
1682;SDS011;13252;53.596;10.060;2023-05-23T03:32:08;70.37;;;52.60;;
1682;SDS011;13252;53.596;10.060;2023-05-23T03:34:37;72.47;;;52.23;;
1682;SDS011;13252;53.596;10.060;2023-05-23T03:37:10;69.63;;;51.70;;
1682;SDS011;13252;53.596;10.060;2023-05-23T03:39:38;70.90;;;48.53;;
1682;SDS011;13252;53.596;10.060;2023-05-23T03:42:07;72.43;;;49.60;;
1682;SDS011;13252;53.596;10.060;2023-05-23T03:44:37;61.00;;;49.07;;
1682;SDS011;13252;53.596;10.060;2023-05-23T03:47:06;51.63;;;45.27;;
1682;SDS011;13252;53.596;10.060;2023-05-23T03:49:37;61.53;;;44.43;;
1682;SDS011;13252;53.596;10.060;2023-05-23T03:52:05;61.40;;;43.53;;
1682;SDS011;13252;53.596;10.060;2023-05-23T03:54:34;64.90;;;45.20;;
1682;SDS011;13252;53.596;10.060;2023-05-23T03:57:03;58.40;;;43.17;;
1682;SDS011;13252;53.596;10.060;2023-05-23T03:59:33;52.30;;;41.90;;
1682;SDS011;13252;53.596;10.060;2023-05-23T04:02:07;57.37;;;42.73;;
1682;SDS011;13252;53.596;10.060;2023-05-23T04:04:37;52.03;;;40.63;;
1682;SDS011;13252;53.596;10.060;2023-05-23T04:07:06;50.70;;;41.00;;
1682;SDS011;13252;53.596;10.060;2023-05-23T04:09:37;62.77;;;39.60;;
1682;SDS011;13252;53.596;10.060;2023-05-23T04:12:09;45.70;;;39.47;;
1682;SDS011;13252;53.596;10.060;2023-05-23T04:14:38;44.27;;;37.40;;
1682;SDS011;13252;53.596;10.060;2023-05-23T04:17:08;46.87;;;38.10;;
1682;SDS011;13252;53.596;10.060;2023-05-23T04:19:38;43.63;;;38.33;;
1682;SDS011;13252;53.596;10.060;2023-05-23T04:22:06;46.37;;;39.33;;
1682;SDS011;13252;53.596;10.060;2023-05-23T04:24:35;60.30;;;41.87;;
1682;SDS011;13252;53.596;10.060;2023-05-23T04:27:04;62.53;;;42.80;;
1682;SDS011;13252;53.596;10.060;2023-05-23T04:29:33;52.17;;;41.80;;
1682;SDS011;13252;53.596;10.060;2023-05-23T04:32:01;51.17;;;42.27;;
1682;SDS011;13252;53.596;10.060;2023-05-23T04:34:33;52.03;;;38.50;;
1682;SDS011;13252;53.596;10.060;2023-05-23T04:37:03;55.47;;;42.93;;
1682;SDS011;13252;53.596;10.060;2023-05-23T04:39:33;60.47;;;44.33;;
1682;SDS011;13252;53.596;10.060;2023-05-23T04:42:25;55.57;;;43.60;;
1682;SDS011;13252;53.596;10.060;2023-05-23T04:45:10;60.63;;;43.63;;
1682;SDS011;13252;53.596;10.060;2023-05-23T04:47:58;52.50;;;43.80;;
1682;SDS011;13252;53.596;10.060;2023-05-23T04:50:36;53.90;;;41.73;;
1682;SDS011;13252;53.596;10.060;2023-05-23T04:53:05;72.50;;;45.40;;
1682;SDS011;13252;53.596;10.060;2023-05-23T04:55:35;61.93;;;45.70;;
1682;SDS011;13252;53.596;10.060;2023-05-23T04:58:05;66.30;;;46.20;;
1682;SDS011;13252;53.596;10.060;2023-05-23T05:00:35;56.90;;;43.43;;
1682;SDS011;13252;53.596;10.060;2023-05-23T05:03:03;63.80;;;43.63;;
1682;SDS011;13252;53.596;10.060;2023-05-23T05:05:32;64.13;;;44.60;;
1682;SDS011;13252;53.596;10.060;2023-05-23T05:08:02;73.53;;;46.67;;
1682;SDS011;13252;53.596;10.060;2023-05-23T05:10:30;61.47;;;44.73;;
1682;SDS011;13252;53.596;10.060;2023-05-23T05:12:58;66.60;;;42.17;;
1682;SDS011;13252;53.596;10.060;2023-05-23T05:15:33;63.27;;;44.40;;
1682;SDS011;13252;53.596;10.060;2023-05-23T05:18:01;62.00;;;43.60;;
1682;SDS011;13252;53.596;10.060;2023-05-23T05:20:30;75.63;;;45.40;;
1682;SDS011;13252;53.596;10.060;2023-05-23T05:22:59;68.93;;;46.13;;
1682;SDS011;13252;53.596;10.060;2023-05-23T05:25:29;76.90;;;49.30;;
1682;SDS011;13252;53.596;10.060;2023-05-23T05:27:59;62.07;;;43.97;;
1682;SDS011;13252;53.596;10.060;2023-05-23T05:30:29;68.83;;;45.67;;
1682;SDS011;13252;53.596;10.060;2023-05-23T05:32:59;61.50;;;46.30;;
1682;SDS011;13252;53.596;10.060;2023-05-23T05:35:32;68.63;;;46.57;;
1682;SDS011;13252;53.596;10.060;2023-05-23T05:38:02;67.20;;;46.03;;
1682;SDS011;13252;53.596;10.060;2023-05-23T05:40:32;65.87;;;45.20;;
1682;SDS011;13252;53.596;10.060;2023-05-23T05:43:00;64.10;;;44.73;;
1682;SDS011;13252;53.596;10.060;2023-05-23T05:45:29;74.33;;;46.20;;
1682;SDS011;13252;53.596;10.060;2023-05-23T05:47:57;68.27;;;47.57;;
1682;SDS011;13252;53.596;10.060;2023-05-23T05:50:26;74.83;;;46.83;;
1682;SDS011;13252;53.596;10.060;2023-05-23T05:52:54;82.57;;;47.70;;
1682;SDS011;13252;53.596;10.060;2023-05-23T05:55:23;76.07;;;47.83;;
1682;SDS011;13252;53.596;10.060;2023-05-23T05:57:55;70.13;;;48.33;;
1682;SDS011;13252;53.596;10.060;2023-05-23T06:00:24;62.20;;;46.13;;
1682;SDS011;13252;53.596;10.060;2023-05-23T06:02:56;74.97;;;47.60;;
1682;SDS011;13252;53.596;10.060;2023-05-23T06:05:41;70.10;;;47.97;;
1682;SDS011;13252;53.596;10.060;2023-05-23T06:08:10;85.43;;;53.47;;
1682;SDS011;13252;53.596;10.060;2023-05-23T06:10:38;67.27;;;50.37;;
1682;SDS011;13252;53.596;10.060;2023-05-23T06:13:08;100.63;;;53.57;;
1682;SDS011;13252;53.596;10.060;2023-05-23T06:15:39;97.47;;;52.10;;
1682;SDS011;13252;53.596;10.060;2023-05-23T06:18:07;86.33;;;56.73;;
1682;SDS011;13252;53.596;10.060;2023-05-23T06:20:35;86.13;;;51.10;;
1682;SDS011;13252;53.596;10.060;2023-05-23T06:23:07;85.30;;;54.47;;
1682;SDS011;13252;53.596;10.060;2023-05-23T06:25:38;88.10;;;52.73;;
1682;SDS011;13252;53.596;10.060;2023-05-23T06:28:06;94.17;;;55.47;;
1682;SDS011;13252;53.596;10.060;2023-05-23T06:30:36;113.50;;;53.73;;
1682;SDS011;13252;53.596;10.060;2023-05-23T06:33:06;75.67;;;51.00;;
1682;SDS011;13252;53.596;10.060;2023-05-23T06:35:34;78.47;;;50.90;;
1682;SDS011;13252;53.596;10.060;2023-05-23T06:38:02;85.10;;;50.23;;
1682;SDS011;13252;53.596;10.060;2023-05-23T06:40:30;62.07;;;42.43;;
1682;SDS011;13252;53.596;10.060;2023-05-23T06:42:58;64.43;;;44.17;;
1682;SDS011;13252;53.596;10.060;2023-05-23T06:45:39;63.33;;;44.17;;
1682;SDS011;13252;53.596;10.060;2023-05-23T06:48:11;77.97;;;45.57;;
1682;SDS011;13252;53.596;10.060;2023-05-23T06:50:40;76.67;;;48.20;;
1682;SDS011;13252;53.596;10.060;2023-05-23T06:53:10;86.87;;;52.23;;
1682;SDS011;13252;53.596;10.060;2023-05-23T06:55:45;84.73;;;52.67;;
1682;SDS011;13252;53.596;10.060;2023-05-23T06:58:16;78.13;;;47.53;;
1682;SDS011;13252;53.596;10.060;2023-05-23T07:00:46;69.03;;;44.80;;
1682;SDS011;13252;53.596;10.060;2023-05-23T07:03:20;65.47;;;45.60;;
1682;SDS011;13252;53.596;10.060;2023-05-23T07:05:49;52.53;;;41.73;;
1682;SDS011;13252;53.596;10.060;2023-05-23T07:08:20;43.70;;;36.50;;
1682;SDS011;13252;53.596;10.060;2023-05-23T07:10:59;43.30;;;37.13;;
1682;SDS011;13252;53.596;10.060;2023-05-23T07:13:51;39.57;;;32.80;;
1682;SDS011;13252;53.596;10.060;2023-05-23T07:16:40;34.50;;;30.70;;
1682;SDS011;13252;53.596;10.060;2023-05-23T07:19:08;34.07;;;29.87;;
1682;SDS011;13252;53.596;10.060;2023-05-23T07:21:47;27.87;;;23.17;;
1682;SDS011;13252;53.596;10.060;2023-05-23T07:24:16;26.20;;;21.37;;
1682;SDS011;13252;53.596;10.060;2023-05-23T07:26:46;23.80;;;21.27;;
1682;SDS011;13252;53.596;10.060;2023-05-23T07:29:14;24.60;;;19.43;;
1682;SDS011;13252;53.596;10.060;2023-05-23T07:31:45;20.97;;;18.77;;
1682;SDS011;13252;53.596;10.060;2023-05-23T07:34:14;20.97;;;18.87;;
1682;SDS011;13252;53.596;10.060;2023-05-23T07:36:49;20.70;;;16.93;;
1682;SDS011;13252;53.596;10.060;2023-05-23T07:39:19;16.30;;;14.70;;
1682;SDS011;13252;53.596;10.060;2023-05-23T07:41:51;16.40;;;14.80;;
1682;SDS011;13252;53.596;10.060;2023-05-23T07:44:19;16.20;;;14.60;;
1682;SDS011;13252;53.596;10.060;2023-05-23T07:46:53;18.17;;;14.17;;
1682;SDS011;13252;53.596;10.060;2023-05-23T07:49:22;15.30;;;13.50;;
1682;SDS011;13252;53.596;10.060;2023-05-23T07:51:51;17.17;;;15.33;;
1682;SDS011;13252;53.596;10.060;2023-05-23T07:54:19;14.87;;;13.47;;
1682;SDS011;13252;53.596;10.060;2023-05-23T07:56:52;15.10;;;13.30;;
1682;SDS011;13252;53.596;10.060;2023-05-23T07:59:20;14.90;;;12.17;;
1682;SDS011;13252;53.596;10.060;2023-05-23T08:01:50;13.10;;;11.73;;
1682;SDS011;13252;53.596;10.060;2023-05-23T08:04:21;16.00;;;10.73;;
1682;SDS011;13252;53.596;10.060;2023-05-23T08:06:51;11.90;;;10.20;;
1682;SDS011;13252;53.596;10.060;2023-05-23T08:09:57;11.80;;;10.60;;
1682;SDS011;13252;53.596;10.060;2023-05-23T08:12:24;12.27;;;9.83;;
1682;SDS011;13252;53.596;10.060;2023-05-23T08:15:04;9.33;;;8.43;;
1682;SDS011;13252;53.596;10.060;2023-05-23T08:17:38;16.67;;;11.30;;
1682;SDS011;13252;53.596;10.060;2023-05-23T08:20:08;9.90;;;8.57;;
1682;SDS011;13252;53.596;10.060;2023-05-23T08:22:37;11.67;;;9.33;;
1682;SDS011;13252;53.596;10.060;2023-05-23T08:25:05;12.80;;;8.93;;
1682;SDS011;13252;53.596;10.060;2023-05-23T08:27:36;13.27;;;10.10;;
1682;SDS011;13252;53.596;10.060;2023-05-23T08:30:18;14.77;;;8.80;;
1682;SDS011;13252;53.596;10.060;2023-05-23T08:32:49;9.67;;;8.77;;
1682;SDS011;13252;53.596;10.060;2023-05-23T08:35:18;9.87;;;8.17;;
1682;SDS011;13252;53.596;10.060;2023-05-23T08:37:45;14.30;;;7.97;;
1682;SDS011;13252;53.596;10.060;2023-05-23T08:40:18;8.30;;;7.50;;
1682;SDS011;13252;53.596;10.060;2023-05-23T08:42:55;10.10;;;7.10;;
1682;SDS011;13252;53.596;10.060;2023-05-23T08:45:23;11.47;;;6.60;;
1682;SDS011;13252;53.596;10.060;2023-05-23T08:47:51;8.20;;;5.47;;
1682;SDS011;13252;53.596;10.060;2023-05-23T08:50:23;7.93;;;5.63;;
1682;SDS011;13252;53.596;10.060;2023-05-23T08:52:56;11.50;;;5.97;;
1682;SDS011;13252;53.596;10.060;2023-05-23T08:55:27;8.57;;;6.60;;
1682;SDS011;13252;53.596;10.060;2023-05-23T08:57:57;9.00;;;6.90;;
1682;SDS011;13252;53.596;10.060;2023-05-23T09:00:34;13.23;;;7.00;;
1682;SDS011;13252;53.596;10.060;2023-05-23T09:03:02;8.83;;;7.93;;
1682;SDS011;13252;53.596;10.060;2023-05-23T09:05:43;9.87;;;8.87;;
1682;SDS011;13252;53.596;10.060;2023-05-23T09:08:11;10.77;;;8.67;;
1682;SDS011;13252;53.596;10.060;2023-05-23T09:10:40;9.53;;;8.53;;
1682;SDS011;13252;53.596;10.060;2023-05-23T09:13:09;13.67;;;9.40;;
1682;SDS011;13252;53.596;10.060;2023-05-23T09:15:54;11.10;;;10.00;;
1682;SDS011;13252;53.596;10.060;2023-05-23T09:18:23;10.70;;;9.40;;
1682;SDS011;13252;53.596;10.060;2023-05-23T09:20:52;14.93;;;12.13;;
1682;SDS011;13252;53.596;10.060;2023-05-23T09:23:20;14.77;;;12.23;;
1682;SDS011;13252;53.596;10.060;2023-05-23T09:25:48;12.83;;;11.40;;
1682;SDS011;13252;53.596;10.060;2023-05-23T09:28:15;17.17;;;13.63;;
1682;SDS011;13252;53.596;10.060;2023-05-23T09:30:44;20.60;;;13.60;;
1682;SDS011;13252;53.596;10.060;2023-05-23T09:33:12;17.63;;;14.17;;
1682;SDS011;13252;53.596;10.060;2023-05-23T09:35:42;24.63;;;12.77;;
1682;SDS011;13252;53.596;10.060;2023-05-23T09:38:12;17.00;;;12.30;;
1682;SDS011;13252;53.596;10.060;2023-05-23T09:40:43;21.47;;;12.87;;
1682;SDS011;13252;53.596;10.060;2023-05-23T09:43:11;15.13;;;13.63;;
1682;SDS011;13252;53.596;10.060;2023-05-23T09:45:39;21.33;;;14.10;;
1682;SDS011;13252;53.596;10.060;2023-05-23T09:48:10;18.80;;;13.10;;
1682;SDS011;13252;53.596;10.060;2023-05-23T09:50:38;17.17;;;12.50;;
1682;SDS011;13252;53.596;10.060;2023-05-23T09:53:06;16.60;;;10.47;;
1682;SDS011;13252;53.596;10.060;2023-05-23T09:55:35;14.90;;;9.97;;
1682;SDS011;13252;53.596;10.060;2023-05-23T09:58:05;15.83;;;10.20;;
1682;SDS011;13252;53.596;10.060;2023-05-23T10:00:33;15.20;;;10.23;;
1682;SDS011;13252;53.596;10.060;2023-05-23T10:03:04;15.53;;;8.40;;
1682;SDS011;13252;53.596;10.060;2023-05-23T10:05:40;7.80;;;6.50;;
1682;SDS011;13252;53.596;10.060;2023-05-23T10:08:10;9.37;;;7.13;;
1682;SDS011;13252;53.596;10.060;2023-05-23T10:14:01;10.33;;;5.73;;
1682;SDS011;13252;53.596;10.060;2023-05-23T10:16:30;9.23;;;6.20;;
1682;SDS011;13252;53.596;10.060;2023-05-23T10:19:09;12.63;;;6.20;;
1682;SDS011;13252;53.596;10.060;2023-05-23T10:21:43;11.80;;;5.93;;
1682;SDS011;13252;53.596;10.060;2023-05-23T10:24:14;10.67;;;6.10;;
1682;SDS011;13252;53.596;10.060;2023-05-23T10:26:43;12.47;;;6.70;;
1682;SDS011;13252;53.596;10.060;2023-05-23T10:29:12;9.53;;;5.33;;
1682;SDS011;13252;53.596;10.060;2023-05-23T10:31:43;12.50;;;5.20;;
1682;SDS011;13252;53.596;10.060;2023-05-23T10:34:14;8.67;;;5.00;;
1682;SDS011;13252;53.596;10.060;2023-05-23T10:36:52;12.07;;;5.03;;
1682;SDS011;13252;53.596;10.060;2023-05-23T10:39:26;11.37;;;4.60;;
1682;SDS011;13252;53.596;10.060;2023-05-23T10:41:59;15.63;;;4.60;;
1682;SDS011;13252;53.596;10.060;2023-05-23T10:44:30;15.43;;;5.07;;
1682;SDS011;13252;53.596;10.060;2023-05-23T10:46:58;8.93;;;3.87;;
1682;SDS011;13252;53.596;10.060;2023-05-23T10:49:36;7.90;;;4.00;;
1682;SDS011;13252;53.596;10.060;2023-05-23T10:52:05;11.90;;;4.60;;
1682;SDS011;13252;53.596;10.060;2023-05-23T10:54:33;8.80;;;3.00;;
1682;SDS011;13252;53.596;10.060;2023-05-23T10:57:01;13.33;;;3.73;;
1682;SDS011;13252;53.596;10.060;2023-05-23T10:59:31;14.57;;;4.53;;
1682;SDS011;13252;53.596;10.060;2023-05-23T11:01:59;5.70;;;3.17;;
1682;SDS011;13252;53.596;10.060;2023-05-23T11:04:28;9.27;;;3.57;;
1682;SDS011;13252;53.596;10.060;2023-05-23T11:06:56;15.07;;;4.13;;
1682;SDS011;13252;53.596;10.060;2023-05-23T11:09:25;9.10;;;3.83;;
1682;SDS011;13252;53.596;10.060;2023-05-23T11:12:02;16.67;;;4.10;;
1682;SDS011;13252;53.596;10.060;2023-05-23T11:20:15;11.13;;;3.40;;
1682;SDS011;13252;53.596;10.060;2023-05-23T11:22:52;10.83;;;3.77;;
1682;SDS011;13252;53.596;10.060;2023-05-23T11:25:20;7.57;;;3.83;;
1682;SDS011;13252;53.596;10.060;2023-05-23T11:27:48;22.10;;;6.00;;
1682;SDS011;13252;53.596;10.060;2023-05-23T11:30:18;10.07;;;4.13;;
1682;SDS011;13252;53.596;10.060;2023-05-23T11:32:49;7.50;;;3.50;;
1682;SDS011;13252;53.596;10.060;2023-05-23T11:35:18;18.17;;;4.53;;
1682;SDS011;13252;53.596;10.060;2023-05-23T11:37:47;10.40;;;4.03;;
1682;SDS011;13252;53.596;10.060;2023-05-23T11:40:25;13.70;;;3.60;;
1682;SDS011;13252;53.596;10.060;2023-05-23T11:42:54;8.20;;;3.10;;
1682;SDS011;13252;53.596;10.060;2023-05-23T11:45:24;7.67;;;3.20;;
1682;SDS011;13252;53.596;10.060;2023-05-23T11:47:53;17.83;;;3.93;;
1682;SDS011;13252;53.596;10.060;2023-05-23T11:50:21;14.47;;;3.93;;
1682;SDS011;13252;53.596;10.060;2023-05-23T11:52:50;11.57;;;3.50;;
1682;SDS011;13252;53.596;10.060;2023-05-23T11:55:18;12.30;;;3.80;;
1682;SDS011;13252;53.596;10.060;2023-05-23T11:57:47;16.53;;;3.90;;
1682;SDS011;13252;53.596;10.060;2023-05-23T12:00:16;23.07;;;5.70;;
1682;SDS011;13252;53.596;10.060;2023-05-23T12:02:46;9.40;;;4.43;;
1682;SDS011;13252;53.596;10.060;2023-05-23T12:05:15;22.67;;;4.53;;
1682;SDS011;13252;53.596;10.060;2023-05-23T12:07:47;19.00;;;4.60;;
1682;SDS011;13252;53.596;10.060;2023-05-23T12:10:16;27.53;;;5.77;;
1682;SDS011;13252;53.596;10.060;2023-05-23T12:12:46;20.60;;;4.20;;
1682;SDS011;13252;53.596;10.060;2023-05-23T12:15:14;16.80;;;4.23;;
1682;SDS011;13252;53.596;10.060;2023-05-23T12:17:43;14.57;;;3.80;;
1682;SDS011;13252;53.596;10.060;2023-05-23T12:20:13;11.73;;;3.77;;
1682;SDS011;13252;53.596;10.060;2023-05-23T12:22:42;11.00;;;3.90;;
1682;SDS011;13252;53.596;10.060;2023-05-23T12:25:17;16.90;;;4.27;;
1682;SDS011;13252;53.596;10.060;2023-05-23T12:27:45;16.83;;;3.70;;
1682;SDS011;13252;53.596;10.060;2023-05-23T12:30:17;15.50;;;4.30;;
1682;SDS011;13252;53.596;10.060;2023-05-23T12:33:51;16.83;;;4.27;;
1682;SDS011;13252;53.596;10.060;2023-05-23T12:36:23;13.17;;;3.50;;
1682;SDS011;13252;53.596;10.060;2023-05-23T12:39:00;14.73;;;4.93;;
1682;SDS011;13252;53.596;10.060;2023-05-23T12:41:29;8.67;;;3.93;;
1682;SDS011;13252;53.596;10.060;2023-05-23T12:43:58;12.43;;;3.10;;
1682;SDS011;13252;53.596;10.060;2023-05-23T12:46:26;23.33;;;4.97;;
1682;SDS011;13252;53.596;10.060;2023-05-23T12:48:54;14.67;;;4.13;;
1682;SDS011;13252;53.596;10.060;2023-05-23T12:51:24;10.80;;;4.30;;
1682;SDS011;13252;53.596;10.060;2023-05-23T12:53:52;16.83;;;5.57;;
1682;SDS011;13252;53.596;10.060;2023-05-23T12:56:20;11.87;;;4.97;;
1682;SDS011;13252;53.596;10.060;2023-05-23T12:58:48;13.40;;;3.70;;
1682;SDS011;13252;53.596;10.060;2023-05-23T13:01:16;12.50;;;4.00;;
1682;SDS011;13252;53.596;10.060;2023-05-23T13:03:44;16.60;;;4.37;;
1682;SDS011;13252;53.596;10.060;2023-05-23T13:06:13;14.33;;;4.47;;
1682;SDS011;13252;53.596;10.060;2023-05-23T13:08:42;15.27;;;5.27;;
1682;SDS011;13252;53.596;10.060;2023-05-23T13:11:16;19.10;;;3.90;;
1682;SDS011;13252;53.596;10.060;2023-05-23T13:13:45;14.23;;;4.90;;
1682;SDS011;13252;53.596;10.060;2023-05-23T13:16:13;12.37;;;3.97;;
1682;SDS011;13252;53.596;10.060;2023-05-23T13:18:41;10.73;;;4.00;;
1682;SDS011;13252;53.596;10.060;2023-05-23T13:21:08;12.23;;;3.87;;
1682;SDS011;13252;53.596;10.060;2023-05-23T13:23:36;11.00;;;3.70;;
1682;SDS011;13252;53.596;10.060;2023-05-23T13:26:06;20.90;;;4.70;;
1682;SDS011;13252;53.596;10.060;2023-05-23T13:28:34;17.47;;;3.60;;
1682;SDS011;13252;53.596;10.060;2023-05-23T13:31:02;16.83;;;4.60;;
1682;SDS011;13252;53.596;10.060;2023-05-23T13:33:29;17.13;;;4.77;;
1682;SDS011;13252;53.596;10.060;2023-05-23T13:35:57;12.57;;;4.80;;
1682;SDS011;13252;53.596;10.060;2023-05-23T13:38:25;27.13;;;6.10;;
1682;SDS011;13252;53.596;10.060;2023-05-23T13:40:53;14.00;;;4.17;;
1682;SDS011;13252;53.596;10.060;2023-05-23T13:43:23;14.80;;;4.50;;
1682;SDS011;13252;53.596;10.060;2023-05-23T13:45:53;10.57;;;3.50;;
1682;SDS011;13252;53.596;10.060;2023-05-23T13:48:21;12.30;;;4.03;;
1682;SDS011;13252;53.596;10.060;2023-05-23T13:50:49;15.60;;;4.43;;
1682;SDS011;13252;53.596;10.060;2023-05-23T13:53:17;11.70;;;3.50;;
1682;SDS011;13252;53.596;10.060;2023-05-23T13:55:46;12.00;;;3.40;;
1682;SDS011;13252;53.596;10.060;2023-05-23T13:58:15;12.30;;;3.57;;
1682;SDS011;13252;53.596;10.060;2023-05-23T14:00:45;15.93;;;4.40;;
1682;SDS011;13252;53.596;10.060;2023-05-23T14:03:13;11.10;;;4.17;;
1682;SDS011;13252;53.596;10.060;2023-05-23T14:05:41;18.57;;;3.80;;
1682;SDS011;13252;53.596;10.060;2023-05-23T14:08:09;17.57;;;4.40;;
1682;SDS011;13252;53.596;10.060;2023-05-23T14:10:39;18.43;;;3.17;;
1682;SDS011;13252;53.596;10.060;2023-05-23T14:13:11;15.10;;;5.20;;
1682;SDS011;13252;53.596;10.060;2023-05-23T14:15:39;18.93;;;4.37;;
1682;SDS011;13252;53.596;10.060;2023-05-23T14:18:14;13.33;;;3.80;;
1682;SDS011;13252;53.596;10.060;2023-05-23T14:20:44;14.67;;;3.10;;
1682;SDS011;13252;53.596;10.060;2023-05-23T14:23:11;17.13;;;4.70;;
1682;SDS011;13252;53.596;10.060;2023-05-23T14:25:39;13.47;;;3.70;;
1682;SDS011;13252;53.596;10.060;2023-05-23T14:28:08;14.70;;;4.00;;
1682;SDS011;13252;53.596;10.060;2023-05-23T14:30:35;17.33;;;3.80;;
1682;SDS011;13252;53.596;10.060;2023-05-23T14:33:03;20.07;;;4.40;;
1682;SDS011;13252;53.596;10.060;2023-05-23T14:35:35;7.30;;;2.60;;
1682;SDS011;13252;53.596;10.060;2023-05-23T14:38:05;23.67;;;5.37;;
1682;SDS011;13252;53.596;10.060;2023-05-23T14:40:33;16.40;;;3.33;;
1682;SDS011;13252;53.596;10.060;2023-05-23T14:43:00;19.60;;;3.30;;
1682;SDS011;13252;53.596;10.060;2023-05-23T14:45:28;16.47;;;3.20;;
1682;SDS011;13252;53.596;10.060;2023-05-23T14:47:56;14.13;;;3.83;;
1682;SDS011;13252;53.596;10.060;2023-05-23T14:50:24;15.97;;;3.70;;
1682;SDS011;13252;53.596;10.060;2023-05-23T14:52:54;11.33;;;3.43;;
1682;SDS011;13252;53.596;10.060;2023-05-23T14:55:21;14.00;;;3.60;;
1682;SDS011;13252;53.596;10.060;2023-05-23T14:57:49;20.03;;;3.97;;